Time;durP1;ratioP1;P1;durP2;ratioP2;P2;SDS_P1;SDS_P2;PMS_P1;PMS_P2;Temp;Humidity;BMP_temperature;BMP_pressure;BME280_temperature;BME280_humidity;BME280_pressure;Samples;Min_cycle;Max_cycle;Signal;HPM_P1;HPM_P2
2022/06/30 00:00:15;;;;;;;10.45;6.25;;;;;;;;;;5051213;28;20033;-63
2022/06/30 00:02:42;;;;;;;6.80;4.75;;;;;;;;;;5051622;28;20021;-65
2022/06/30 00:05:08;;;;;;;7.70;5.55;;;;;;;;;;5051472;28;20472;-65
2022/06/30 00:07:34;;;;;;;8.27;3.70;;;;;;;;;;5051354;28;20040;-64
2022/06/30 00:10:00;;;;;;;11.38;6.82;;;;;;;;;;5051563;28;20035;-63
2022/06/30 00:12:26;;;;;;;5.07;2.75;;;;;;;;;;5051554;28;20082;-64
2022/06/30 00:14:52;;;;;;;9.13;5.90;;;;;;;;;;5051434;28;20052;-65
2022/06/30 00:17:18;;;;;;;4.32;2.90;;;;;;;;;;5051269;28;20036;-63
2022/06/30 00:19:45;;;;;;;7.40;4.00;;;;;;;;;;5051249;28;20028;-63
2022/06/30 00:22:12;;;;;;;8.07;4.80;;;;;;;;;;5050996;28;20107;-62
2022/06/30 00:24:38;;;;;;;8.05;3.03;;;;;;;;;;5051291;28;20037;-62
2022/06/30 00:27:05;;;;;;;6.10;3.00;;;;;;;;;;5050643;28;20488;-63
2022/06/30 00:29:32;;;;;;;8.00;3.35;;;;;;;;;;5051172;28;20469;-62
2022/06/30 00:31:58;;;;;;;4.72;3.00;;;;;;;;;;5050925;28;20029;-62
2022/06/30 00:34:24;;;;;;;6.90;3.47;;;;;;;;;;5051212;28;20060;-62
2022/06/30 00:36:50;;;;;;;8.18;2.80;;;;;;;;;;5051095;28;20025;-64
2022/06/30 00:39:16;;;;;;;6.43;3.50;;;;;;;;;;5051223;28;20028;-65
2022/06/30 00:41:42;;;;;;;4.07;2.90;;;;;;;;;;5051124;28;20028;-65
2022/06/30 00:44:11;;;;;;;6.00;3.30;;;;;;;;;;5051344;28;20100;-64
2022/06/30 00:46:38;;;;;;;5.80;3.60;;;;;;;;;;5050676;28;20033;-63
2022/06/30 00:49:04;;;;;;;6.70;3.25;;;;;;;;;;5050983;28;20013;-62
2022/06/30 00:51:30;;;;;;;6.40;3.10;;;;;;;;;;5050652;28;20032;-62
2022/06/30 00:53:56;;;;;;;5.70;3.10;;;;;;;;;;5050718;28;20028;-63
2022/06/30 00:56:24;;;;;;;5.13;2.83;;;;;;;;;;5050926;28;20079;-63
2022/06/30 00:58:52;;;;;;;4.72;3.42;;;;;;;;;;5050936;28;20041;-66
2022/06/30 01:01:18;;;;;;;3.55;3.17;;;;;;;;;;5050768;28;20056;-65
2022/06/30 01:03:44;;;;;;;7.05;3.10;;;;;;;;;;5050792;28;20546;-64
2022/06/30 01:06:11;;;;;;;6.20;3.25;;;;;;;;;;5050731;28;20083;-66
2022/06/30 01:08:37;;;;;;;4.55;2.90;;;;;;;;;;5052129;28;20028;-62
2022/06/30 01:13:48;;;;;;;5.60;3.20;;;;;;;;;;5055033;28;20087;-63
2022/06/30 01:16:15;;;;;;;5.03;3.10;;;;;;;;;;5054723;28;20029;-63
2022/06/30 01:18:41;;;;;;;5.22;3.50;;;;;;;;;;5054427;28;20025;-63
2022/06/30 01:21:07;;;;;;;6.82;3.10;;;;;;;;;;5054555;28;20491;-63
2022/06/30 01:23:33;;;;;;;4.63;3.00;;;;;;;;;;5053782;28;20029;-62
2022/06/30 01:25:59;;;;;;;7.65;3.75;;;;;;;;;;5052733;28;20533;-62
2022/06/30 01:28:25;;;;;;;6.88;3.47;;;;;;;;;;5054263;28;20048;-63
2022/06/30 01:30:51;;;;;;;4.28;3.30;;;;;;;;;;5054065;28;20025;-63
2022/06/30 01:33:17;;;;;;;6.35;3.33;;;;;;;;;;5054713;28;20389;-62
2022/06/30 01:35:44;;;;;;;6.60;3.47;;;;;;;;;;5054334;28;20106;-63
2022/06/30 01:38:10;;;;;;;8.85;4.30;;;;;;;;;;5054299;28;20139;-63
2022/06/30 01:40:36;;;;;;;4.85;2.85;;;;;;;;;;5054365;28;20029;-63
2022/06/30 01:43:03;;;;;;;8.52;4.65;;;;;;;;;;5054101;28;20447;-63
2022/06/30 01:45:29;;;;;;;8.15;5.57;;;;;;;;;;5053982;28;20048;-63
2022/06/30 01:47:55;;;;;;;6.53;4.63;;;;;;;;;;5054013;28;20045;-64
2022/06/30 01:50:23;;;;;;;6.95;4.10;;;;;;;;;;5053514;28;20021;-62
2022/06/30 01:52:49;;;;;;;4.20;3.50;;;;;;;;;;5053711;28;20603;-62
2022/06/30 01:55:15;;;;;;;8.63;4.38;;;;;;;;;;5053788;28;20021;-62
2022/06/30 01:57:41;;;;;;;13.13;7.18;;;;;;;;;;5053748;28;20025;-62
2022/06/30 02:00:10;;;;;;;4.45;2.80;;;;;;;;;;5053537;28;20184;-63
2022/06/30 02:02:36;;;;;;;4.93;3.03;;;;;;;;;;5054944;28;20021;-63
2022/06/30 02:05:03;;;;;;;7.82;3.67;;;;;;;;;;5055251;28;20030;-63
2022/06/30 02:07:29;;;;;;;7.05;4.57;;;;;;;;;;5053597;28;20044;-63
2022/06/30 02:09:56;;;;;;;4.00;2.78;;;;;;;;;;5053584;28;20029;-66
2022/06/30 02:15:08;;;;;;;6.07;3.53;;;;;;;;;;5053475;28;20040;-63
2022/06/30 02:17:34;;;;;;;5.70;3.97;;;;;;;;;;5053332;28;20029;-62
2022/06/30 02:20:00;;;;;;;4.40;2.80;;;;;;;;;;5052931;28;20056;-64
2022/06/30 02:22:27;;;;;;;5.72;3.60;;;;;;;;;;5053276;28;20070;-64
2022/06/30 02:24:53;;;;;;;5.80;3.45;;;;;;;;;;5053256;28;20025;-62
2022/06/30 02:27:23;;;;;;;4.68;3.45;;;;;;;;;;5052982;28;20045;-63
2022/06/30 02:29:50;;;;;;;6.47;3.05;;;;;;;;;;5053409;28;20037;-63
2022/06/30 02:32:16;;;;;;;7.35;3.10;;;;;;;;;;5052956;28;20074;-62
2022/06/30 02:34:43;;;;;;;6.82;3.95;;;;;;;;;;5052809;28;20112;-62
2022/06/30 02:37:09;;;;;;;5.30;3.15;;;;;;;;;;5053197;28;20029;-63
2022/06/30 02:39:35;;;;;;;6.88;3.70;;;;;;;;;;5052994;28;20028;-63
2022/06/30 02:42:01;;;;;;;7.05;3.10;;;;;;;;;;5053047;28;20060;-62
2022/06/30 02:44:27;;;;;;;6.93;4.00;;;;;;;;;;5051661;28;20025;-62
2022/06/30 02:46:54;;;;;;;5.72;3.55;;;;;;;;;;5052831;28;20037;-63
2022/06/30 02:49:21;;;;;;;8.13;4.15;;;;;;;;;;5052635;28;20029;-63
2022/06/30 02:51:47;;;;;;;7.10;5.07;;;;;;;;;;5052459;28;20078;-64
2022/06/30 02:54:13;;;;;;;8.18;4.65;;;;;;;;;;5052682;28;20067;-63
2022/06/30 02:56:39;;;;;;;10.68;6.50;;;;;;;;;;5052766;28;20110;-63
2022/06/30 02:59:05;;;;;;;8.55;4.13;;;;;;;;;;5052961;28;20112;-64
2022/06/30 03:01:32;;;;;;;12.20;6.55;;;;;;;;;;5052620;28;20043;-62
2022/06/30 03:03:58;;;;;;;8.50;3.95;;;;;;;;;;5052499;28;20469;-65
2022/06/30 03:06:24;;;;;;;4.30;3.20;;;;;;;;;;5052454;28;20506;-62
2022/06/30 03:08:50;;;;;;;6.45;3.97;;;;;;;;;;5052564;28;20116;-65
2022/06/30 03:11:16;;;;;;;4.13;2.83;;;;;;;;;;5052414;28;20025;-65
2022/06/30 03:13:45;;;;;;;10.07;6.53;;;;;;;;;;5052383;28;20037;-66
2022/06/30 03:16:12;;;;;;;11.02;5.43;;;;;;;;;;5052232;28;20400;-62
2022/06/30 03:18:38;;;;;;;6.70;4.35;;;;;;;;;;5052268;28;20385;-63
2022/06/30 03:21:04;;;;;;;5.47;3.22;;;;;;;;;;5051694;28;20481;-66
2022/06/30 03:23:30;;;;;;;8.10;4.75;;;;;;;;;;5051786;28;20021;-65
2022/06/30 03:25:56;;;;;;;7.25;4.10;;;;;;;;;;5051833;28;20168;-66
2022/06/30 03:28:23;;;;;;;7.35;4.43;;;;;;;;;;5051541;28;20068;-64
2022/06/30 03:30:49;;;;;;;3.97;2.90;;;;;;;;;;5051459;28;20103;-64
2022/06/30 03:33:18;;;;;;;3.88;2.65;;;;;;;;;;5051880;28;20025;-63
2022/06/30 03:35:45;;;;;;;5.53;3.33;;;;;;;;;;5051512;28;20071;-63
2022/06/30 03:38:12;;;;;;;6.90;2.70;;;;;;;;;;5051715;28;20025;-64
2022/06/30 03:40:38;;;;;;;6.43;3.05;;;;;;;;;;5051920;28;20028;-64
2022/06/30 03:43:04;;;;;;;5.07;2.75;;;;;;;;;;5051778;28;20063;-63
2022/06/30 03:45:30;;;;;;;3.55;2.85;;;;;;;;;;5052104;28;20032;-63
2022/06/30 03:47:56;;;;;;;4.80;2.60;;;;;;;;;;5051488;28;20029;-63
2022/06/30 03:50:22;;;;;;;4.70;2.92;;;;;;;;;;5051269;28;20053;-63
2022/06/30 03:52:48;;;;;;;4.22;2.55;;;;;;;;;;5051705;28;20108;-66
2022/06/30 03:55:14;;;;;;;6.72;2.75;;;;;;;;;;5051467;28;20075;-63
2022/06/30 03:57:40;;;;;;;4.28;2.60;;;;;;;;;;5051684;28;20100;-63
2022/06/30 04:00:07;;;;;;;5.18;2.70;;;;;;;;;;5051528;28;20041;-64
2022/06/30 04:02:33;;;;;;;4.40;2.33;;;;;;;;;;5051472;28;20024;-63
2022/06/30 04:04:59;;;;;;;4.78;2.78;;;;;;;;;;5051588;28;20104;-64
2022/06/30 04:07:25;;;;;;;6.53;2.97;;;;;;;;;;5051407;28;20064;-64
2022/06/30 04:09:51;;;;;;;3.03;2.55;;;;;;;;;;5051472;28;20036;-65
2022/06/30 04:12:17;;;;;;;5.05;2.38;;;;;;;;;;5051482;28;20074;-63
2022/06/30 04:14:43;;;;;;;4.03;2.50;;;;;;;;;;5051204;28;20060;-66
2022/06/30 04:17:09;;;;;;;5.28;2.70;;;;;;;;;;5051272;28;20025;-65
2022/06/30 04:19:37;;;;;;;5.75;2.72;;;;;;;;;;5051031;28;20531;-63
2022/06/30 04:22:03;;;;;;;4.53;2.60;;;;;;;;;;5050877;28;20028;-65
2022/06/30 04:24:29;;;;;;;7.22;2.83;;;;;;;;;;5051099;28;20049;-65
2022/06/30 04:26:55;;;;;;;5.35;2.90;;;;;;;;;;5050841;28;20040;-65
2022/06/30 04:29:21;;;;;;;3.80;2.60;;;;;;;;;;5050894;28;20055;-65
2022/06/30 04:34:32;;;;;;;5.90;2.47;;;;;;;;;;5051195;28;20603;-64
2022/06/30 04:36:58;;;;;;;5.38;2.85;;;;;;;;;;5050997;28;20025;-65
2022/06/30 04:39:24;;;;;;;7.80;2.50;;;;;;;;;;5050911;28;20017;-65
2022/06/30 04:41:50;;;;;;;4.47;2.50;;;;;;;;;;5050745;28;20108;-65
2022/06/30 04:44:16;;;;;;;6.65;2.72;;;;;;;;;;5054965;28;20491;-66
2022/06/30 04:46:42;;;;;;;4.00;2.55;;;;;;;;;;5054772;28;20040;-64
2022/06/30 04:49:08;;;;;;;4.93;2.60;;;;;;;;;;5054958;28;20025;-65
2022/06/30 04:51:34;;;;;;;4.28;2.70;;;;;;;;;;5054647;28;20460;-65
2022/06/30 04:54:00;;;;;;;7.25;3.03;;;;;;;;;;5066011;28;20100;-65
2022/06/30 04:56:26;;;;;;;6.63;2.97;;;;;;;;;;5070562;28;20531;-64
2022/06/30 04:58:52;;;;;;;5.45;2.88;;;;;;;;;;5074558;28;20028;-65
2022/06/30 05:01:18;;;;;;;4.75;2.80;;;;;;;;;;5074734;28;20475;-67
2022/06/30 05:03:45;;;;;;;4.60;2.50;;;;;;;;;;5074517;28;20115;-64
2022/06/30 05:06:11;;;;;;;4.82;2.45;;;;;;;;;;5075054;28;20020;-66
2022/06/30 05:08:37;;;;;;;5.05;2.90;;;;;;;;;;5074735;28;20091;-65
2022/06/30 05:11:03;;;;;;;4.70;2.88;;;;;;;;;;5074776;28;20027;-67
2022/06/30 05:13:29;;;;;;;6.07;3.00;;;;;;;;;;5074420;28;20468;-64
2022/06/30 05:15:55;;;;;;;4.50;2.88;;;;;;;;;;5074286;28;20028;-64
2022/06/30 05:18:21;;;;;;;6.63;3.42;;;;;;;;;;5074351;28;20033;-65
2022/06/30 05:20:47;;;;;;;3.95;2.80;;;;;;;;;;5074082;28;20024;-64
2022/06/30 05:23:13;;;;;;;4.40;3.00;;;;;;;;;;5074438;28;20028;-68
2022/06/30 05:28:24;;;;;;;4.32;2.97;;;;;;;;;;5073906;28;20511;-65
2022/06/30 05:30:51;;;;;;;4.22;2.80;;;;;;;;;;5073933;28;20025;-66
2022/06/30 05:33:19;;;;;;;6.82;3.15;;;;;;;;;;5074153;28;20028;-67
2022/06/30 05:35:47;;;;;;;3.13;2.70;;;;;;;;;;5073797;28;20016;-65
2022/06/30 05:38:14;;;;;;;4.32;2.72;;;;;;;;;;5074085;28;20491;-65
2022/06/30 05:40:40;;;;;;;6.30;2.75;;;;;;;;;;5073928;28;20598;-65
2022/06/30 05:43:06;;;;;;;3.88;2.70;;;;;;;;;;5074339;28;20342;-64
2022/06/30 05:45:32;;;;;;;6.05;2.80;;;;;;;;;;5074130;28;20024;-65
2022/06/30 05:47:58;;;;;;;5.47;2.40;;;;;;;;;;5073849;28;20033;-65
2022/06/30 05:50:24;;;;;;;5.80;2.63;;;;;;;;;;5073643;28;20023;-65
2022/06/30 05:52:53;;;;;;;4.57;2.50;;;;;;;;;;5070546;28;20067;-63
2022/06/30 05:55:19;;;;;;;4.13;2.25;;;;;;;;;;5071687;28;20052;-64
2022/06/30 05:57:51;;;;;;;6.20;2.50;;;;;;;;;;5073184;28;20024;-63
2022/06/30 06:00:18;;;;;;;7.13;2.65;;;;;;;;;;5044682;28;20445;-63
2022/06/30 06:02:44;;;;;;;5.47;2.70;;;;;;;;;;5066804;28;20107;-65
2022/06/30 06:05:11;;;;;;;6.45;2.70;;;;;;;;;;5072800;28;20369;-59
2022/06/30 06:07:37;;;;;;;8.70;2.85;;;;;;;;;;5072538;28;20484;-62
2022/06/30 06:10:03;;;;;;;4.68;2.55;;;;;;;;;;5073276;28;20024;-61
2022/06/30 06:12:29;;;;;;;6.00;2.85;;;;;;;;;;5073251;28;20657;-60
2022/06/30 06:14:55;;;;;;;12.00;4.55;;;;;;;;;;5072965;28;20052;-61
2022/06/30 06:17:21;;;;;;;5.65;3.20;;;;;;;;;;5072809;28;20031;-64
2022/06/30 06:19:47;;;;;;;6.43;2.67;;;;;;;;;;5073202;28;20058;-60
2022/06/30 06:22:13;;;;;;;6.22;3.35;;;;;;;;;;5072642;28;20433;-64
2022/06/30 06:24:39;;;;;;;7.22;2.97;;;;;;;;;;5072982;28;20064;-61
2022/06/30 06:27:06;;;;;;;4.68;3.17;;;;;;;;;;5072610;28;20037;-60
2022/06/30 06:29:32;;;;;;;6.43;2.70;;;;;;;;;;5072858;28;20146;-60
2022/06/30 06:31:58;;;;;;;6.82;2.85;;;;;;;;;;5072702;28;20043;-59
2022/06/30 06:34:24;;;;;;;4.88;3.17;;;;;;;;;;5072657;28;20052;-64
2022/06/30 06:36:50;;;;;;;6.70;2.88;;;;;;;;;;5072382;28;20037;-62
2022/06/30 06:39:16;;;;;;;6.85;2.90;;;;;;;;;;5072950;28;20020;-60
2022/06/30 06:41:43;;;;;;;15.38;3.13;;;;;;;;;;5072998;28;20024;-64
2022/06/30 06:44:09;;;;;;;5.60;3.10;;;;;;;;;;5072730;28;20028;-63
2022/06/30 06:46:35;;;;;;;11.60;3.53;;;;;;;;;;5072730;28;20451;-59
2022/06/30 06:49:02;;;;;;;8.00;2.80;;;;;;;;;;5072316;28;20087;-59
2022/06/30 06:51:28;;;;;;;6.13;3.22;;;;;;;;;;5072490;28;20423;-60
2022/06/30 06:53:55;;;;;;;6.35;3.00;;;;;;;;;;5072719;28;20515;-61
2022/06/30 06:56:21;;;;;;;5.45;3.17;;;;;;;;;;5072603;28;20039;-59
2022/06/30 06:58:47;;;;;;;7.00;3.10;;;;;;;;;;5072936;28;20024;-61
2022/06/30 07:01:13;;;;;;;9.73;3.10;;;;;;;;;;5072236;28;20096;-60
2022/06/30 07:03:40;;;;;;;5.97;3.30;;;;;;;;;;5072004;28;20466;-60
2022/06/30 07:06:06;;;;;;;7.43;3.58;;;;;;;;;;5071418;28;20028;-59
2022/06/30 07:08:32;;;;;;;8.07;3.35;;;;;;;;;;5072405;28;20036;-63
2022/06/30 07:10:59;;;;;;;5.47;3.22;;;;;;;;;;5071983;28;20031;-62
2022/06/30 07:13:26;;;;;;;10.93;3.08;;;;;;;;;;5072128;28;20021;-60
2022/06/30 07:15:52;;;;;;;7.13;4.00;;;;;;;;;;5071924;28;20429;-57
2022/06/30 07:18:18;;;;;;;6.50;3.53;;;;;;;;;;5072221;28;20452;-57
2022/06/30 07:20:44;;;;;;;7.88;3.85;;;;;;;;;;5071617;28;20035;-58
2022/06/30 07:23:10;;;;;;;7.38;4.05;;;;;;;;;;5071765;28;20075;-57
2022/06/30 07:25:36;;;;;;;7.75;4.10;;;;;;;;;;5071193;28;20079;-59
2022/06/30 07:28:03;;;;;;;6.20;4.25;;;;;;;;;;5071462;28;20499;-59
2022/06/30 07:30:29;;;;;;;6.40;3.92;;;;;;;;;;5071727;28;20107;-58
2022/06/30 07:32:55;;;;;;;6.63;3.90;;;;;;;;;;5071319;28;20522;-61
2022/06/30 07:35:21;;;;;;;9.20;4.35;;;;;;;;;;5071658;28;20035;-60
2022/06/30 07:37:47;;;;;;;10.40;4.25;;;;;;;;;;5071510;28;20033;-57
2022/06/30 07:40:14;;;;;;;8.27;4.55;;;;;;;;;;5071659;28;20024;-58
2022/06/30 07:42:41;;;;;;;7.97;3.90;;;;;;;;;;5071605;28;20431;-56
2022/06/30 07:45:08;;;;;;;10.88;4.78;;;;;;;;;;5071570;28;20539;-56
2022/06/30 07:47:34;;;;;;;6.18;4.30;;;;;;;;;;5071498;28;20079;-60
2022/06/30 07:50:00;;;;;;;7.15;4.40;;;;;;;;;;5071454;28;20484;-66
2022/06/30 07:52:26;;;;;;;9.02;4.38;;;;;;;;;;5071324;28;20037;-60
2022/06/30 07:54:52;;;;;;;7.55;4.05;;;;;;;;;;5071205;28;20499;-57
2022/06/30 07:57:19;;;;;;;10.20;4.88;;;;;;;;;;5071253;28;20046;-58
2022/06/30 07:59:45;;;;;;;8.98;4.78;;;;;;;;;;5071377;28;20020;-57
2022/06/30 08:02:11;;;;;;;10.25;4.65;;;;;;;;;;5071408;28;20039;-57
2022/06/30 08:04:38;;;;;;;14.25;4.63;;;;;;;;;;5071296;28;20020;-65
2022/06/30 08:07:04;;;;;;;9.82;4.70;;;;;;;;;;5071274;28;20365;-68
2022/06/30 08:09:31;;;;;;;10.20;4.32;;;;;;;;;;5071377;28;20079;-57
2022/06/30 08:11:57;;;;;;;10.88;4.53;;;;;;;;;;5071112;28;20036;-67
2022/06/30 08:14:23;;;;;;;14.15;4.70;;;;;;;;;;5071240;28;20020;-63
2022/06/30 08:16:49;;;;;;;10.68;4.82;;;;;;;;;;5070477;28;20070;-57
2022/06/30 08:19:19;;;;;;;16.35;5.15;;;;;;;;;;5071038;28;20029;-68
2022/06/30 08:21:45;;;;;;;11.68;4.55;;;;;;;;;;5071115;28;20041;-58
2022/06/30 08:24:11;;;;;;;11.30;5.80;;;;;;;;;;5070643;28;20024;-60
2022/06/30 08:26:38;;;;;;;14.60;5.32;;;;;;;;;;5070759;28;20036;-56
2022/06/30 08:29:05;;;;;;;14.20;5.38;;;;;;;;;;5070294;28;20053;-59
2022/06/30 08:31:33;;;;;;;15.65;5.38;;;;;;;;;;5071144;28;20052;-60
2022/06/30 08:33:59;;;;;;;22.48;5.93;;;;;;;;;;5070992;28;20036;-57
2022/06/30 08:36:25;;;;;;;11.10;4.93;;;;;;;;;;5069319;28;20031;-57
2022/06/30 08:38:52;;;;;;;16.50;5.13;;;;;;;;;;5070653;28;20028;-65
2022/06/30 08:44:02;;;;;;;37.40;7.82;;;;;;;;;;5069982;28;20455;-58
2022/06/30 08:46:29;;;;;;;31.38;6.50;;;;;;;;;;5070208;28;20111;-57
2022/06/30 08:48:55;;;;;;;34.22;7.40;;;;;;;;;;5070255;28;20029;-57
2022/06/30 08:51:22;;;;;;;53.42;9.52;;;;;;;;;;5070273;28;20078;-59
2022/06/30 08:53:56;;;;;;;17.42;6.32;;;;;;;;;;5070743;28;20021;-56
2022/06/30 08:56:23;;;;;;;13.02;5.32;;;;;;;;;;5070153;28;20036;-56
2022/06/30 08:58:51;;;;;;;38.50;8.93;;;;;;;;;;5052695;28;20465;-72
2022/06/30 09:01:17;;;;;;;157.82;20.38;;;;;;;;;;5070531;28;20060;-57
2022/06/30 09:03:44;;;;;;;89.10;15.38;;;;;;;;;;5070838;28;20083;-57
2022/06/30 09:06:10;;;;;;;75.38;12.40;;;;;;;;;;5070450;28;20596;-73
2022/06/30 09:08:36;;;;;;;41.08;8.05;;;;;;;;;;5070455;28;20047;-72
2022/06/30 09:11:04;;;;;;;33.30;7.75;;;;;;;;;;5070621;28;20372;-69
2022/06/30 09:13:42;;;;;;;35.92;9.57;;;;;;;;;;5070218;28;20060;-57
2022/06/30 09:16:08;;;;;;;33.67;8.40;;;;;;;;;;5070444;28;20128;-61
2022/06/30 09:18:34;;;;;;;34.33;8.68;;;;;;;;;;5066636;28;20032;-56
2022/06/30 09:21:00;;;;;;;152.18;24.63;;;;;;;;;;5069463;28;20028;-57
2022/06/30 09:23:30;;;;;;;104.30;17.13;;;;;;;;;;5069842;28;20028;-71
2022/06/30 09:25:57;;;;;;;46.88;9.35;;;;;;;;;;5070104;28;20465;-56
2022/06/30 09:28:41;;;;;;;57.03;11.73;;;;;;;;;;5070106;28;20056;-58
2022/06/30 09:31:07;;;;;;;90.15;17.55;;;;;;;;;;5055892;28;20131;-69
2022/06/30 09:33:34;;;;;;;127.15;20.20;;;;;;;;;;5074291;28;20028;-56
2022/06/30 09:36:18;;;;;;;22.98;6.82;;;;;;;;;;5072204;28;20492;-56
2022/06/30 09:38:58;;;;;;;12.43;5.88;;;;;;;;;;5073033;28;20032;-59
2022/06/30 09:41:28;;;;;;;61.22;10.85;;;;;;;;;;5066672;28;20052;-70
2022/06/30 09:43:54;;;;;;;14.80;5.43;;;;;;;;;;5072344;28;20024;-56
2022/06/30 09:46:21;;;;;;;50.25;11.25;;;;;;;;;;5073204;28;20450;-62
2022/06/30 09:48:47;;;;;;;86.57;16.23;;;;;;;;;;5064076;28;20036;-57
2022/06/30 09:51:13;;;;;;;143.40;26.02;;;;;;;;;;5073262;28;20107;-58
2022/06/30 09:53:39;;;;;;;151.20;28.10;;;;;;;;;;5071885;28;20438;-58
2022/06/30 09:56:13;;;;;;;203.32;33.75;;;;;;;;;;5073167;28;20025;-69
2022/06/30 09:58:42;;;;;;;35.05;9.25;;;;;;;;;;5071192;28;20028;-63
2022/06/30 10:01:08;;;;;;;150.25;27.17;;;;;;;;;;5055129;28;20025;-62
2022/06/30 10:03:35;;;;;;;101.30;18.60;;;;;;;;;;5073094;28;20020;-59
2022/06/30 10:06:10;;;;;;;174.52;31.10;;;;;;;;;;5071161;28;20476;-66
2022/06/30 10:08:36;;;;;;;53.13;9.50;;;;;;;;;;5072853;28;20040;-71
2022/06/30 10:11:02;;;;;;;155.88;23.52;;;;;;;;;;5071602;28;20032;-70
2022/06/30 10:13:29;;;;;;;185.70;27.45;;;;;;;;;;5071630;28;20036;-71
2022/06/30 10:15:56;;;;;;;295.80;40.78;;;;;;;;;;5072764;28;20035;-69
2022/06/30 10:18:26;;;;;;;340.45;42.90;;;;;;;;;;5066128;28;20469;-65
2022/06/30 10:20:52;;;;;;;102.18;16.15;;;;;;;;;;5070600;28;20043;-58
2022/06/30 10:23:21;;;;;;;17.05;5.95;;;;;;;;;;5071435;28;20512;-69
2022/06/30 10:25:48;;;;;;;18.50;5.65;;;;;;;;;;5072763;28;20104;-60
2022/06/30 10:28:16;;;;;;;15.05;5.30;;;;;;;;;;5071127;28;20569;-58
2022/06/30 10:30:48;;;;;;;135.45;20.55;;;;;;;;;;5072191;28;20021;-59
2022/06/30 10:33:18;;;;;;;167.27;25.63;;;;;;;;;;5072689;28;20064;-58
2022/06/30 10:36:25;;;;;;;18.33;6.00;;;;;;;;;;5071160;28;20024;-56
2022/06/30 10:38:54;;;;;;;87.55;16.33;;;;;;;;;;4990592;28;20105;-66
2022/06/30 10:41:23;;;;;;;100.65;15.93;;;;;;;;;;4990874;28;20062;-69
2022/06/30 10:44:04;;;;;;;230.73;31.55;;;;;;;;;;4990850;28;20046;-56
2022/06/30 10:46:31;;;;;;;187.43;27.47;;;;;;;;;;4990579;28;20081;-68
2022/06/30 10:48:57;;;;;;;109.53;19.45;;;;;;;;;;4989246;28;20121;-69
2022/06/30 10:51:24;;;;;;;191.35;28.30;;;;;;;;;;4989864;28;20034;-69
2022/06/30 10:53:52;;;;;;;180.43;26.60;;;;;;;;;;4989854;28;20045;-61
2022/06/30 10:56:18;;;;;;;135.43;22.45;;;;;;;;;;4990802;28;20046;-57
2022/06/30 10:59:03;;;;;;;101.97;17.70;;;;;;;;;;4990491;28;20038;-59
2022/06/30 11:01:29;;;;;;;104.55;19.00;;;;;;;;;;4990538;28;20120;-67
2022/06/30 11:03:55;;;;;;;62.25;12.27;;;;;;;;;;4990453;28;20192;-74
2022/06/30 11:06:21;;;;;;;78.03;15.63;;;;;;;;;;4990073;28;20066;-73
2022/06/30 11:08:49;;;;;;;61.92;13.00;;;;;;;;;;5003851;28;20105;-57
2022/06/30 11:11:21;;;;;;;51.58;12.63;;;;;;;;;;5063868;28;20021;-62
2022/06/30 11:13:46;;;;;;;;;;;;;;;;;;5072529;28;20033;-56
2022/06/30 11:16:17;;;;;;;78.78;15.07;;;;;;;;;;5054311;28;19909;-72
2022/06/30 11:18:43;;;;;;;109.60;22.02;;;;;;;;;;5071974;28;20031;-58
2022/06/30 11:21:09;;;;;;;78.53;17.92;;;;;;;;;;5071773;28;20025;-57
2022/06/30 11:23:40;;;;;;;53.42;13.80;;;;;;;;;;5064282;28;20100;-57
2022/06/30 11:28:52;;;;;;;86.97;20.60;;;;;;;;;;5071031;28;20095;-57
2022/06/30 11:31:22;;;;;;;138.02;26.05;;;;;;;;;;5070086;28;20032;-57
2022/06/30 11:33:57;;;;;;;64.50;12.40;;;;;;;;;;5069735;28;20590;-56
2022/06/30 11:36:23;;;;;;;100.10;15.25;;;;;;;;;;5063403;28;20032;-58
2022/06/30 11:39:10;;;;;;;61.55;10.52;;;;;;;;;;5070048;28;20032;-56
2022/06/30 11:41:55;;;;;;;100.53;15.30;;;;;;;;;;5071089;28;20033;-57
2022/06/30 11:44:22;;;;;;;106.05;19.38;;;;;;;;;;5056516;28;20082;-61
2022/06/30 11:46:55;;;;;;;155.75;18.63;;;;;;;;;;5071042;28;20423;-57
2022/06/30 11:49:22;;;;;;;79.25;12.27;;;;;;;;;;5070933;28;20025;-57
2022/06/30 11:51:49;;;;;;;39.17;9.30;;;;;;;;;;5069907;28;20032;-57
2022/06/30 11:54:16;;;;;;;71.88;12.27;;;;;;;;;;5061810;28;20021;-73
2022/06/30 11:56:44;;;;;;;14.30;5.93;;;;;;;;;;5069667;28;20032;-57
2022/06/30 11:59:11;;;;;;;17.80;6.13;;;;;;;;;;5071089;28;20036;-57
2022/06/30 12:01:37;;;;;;;19.13;5.47;;;;;;;;;;5070960;28;20396;-57
2022/06/30 12:04:16;;;;;;;71.65;12.48;;;;;;;;;;5071242;28;20404;-69
2022/06/30 12:06:42;;;;;;;41.88;9.05;;;;;;;;;;5070199;28;20032;-75
2022/06/30 12:09:09;;;;;;;75.88;12.27;;;;;;;;;;5070383;28;20028;-59
2022/06/30 12:11:36;;;;;;;39.58;9.23;;;;;;;;;;5070671;28;20471;-57
2022/06/30 12:14:02;;;;;;;28.92;7.32;;;;;;;;;;5070867;28;20075;-57
2022/06/30 12:16:29;;;;;;;20.48;6.40;;;;;;;;;;5070660;28;20112;-74
2022/06/30 12:18:55;;;;;;;22.83;6.20;;;;;;;;;;5070962;28;20051;-57
2022/06/30 12:21:21;;;;;;;23.13;6.30;;;;;;;;;;5070979;28;20024;-67
2022/06/30 12:23:48;;;;;;;36.10;7.97;;;;;;;;;;5070651;28;20527;-72
2022/06/30 12:26:15;;;;;;;44.08;8.48;;;;;;;;;;5070715;28;20085;-57
2022/06/30 12:28:45;;;;;;;25.90;6.20;;;;;;;;;;5070622;28;20525;-58
2022/06/30 12:31:11;;;;;;;28.52;7.00;;;;;;;;;;5071255;28;20035;-57
2022/06/30 12:33:40;;;;;;;25.20;6.90;;;;;;;;;;5071114;28;20028;-69
2022/06/30 12:36:06;;;;;;;15.18;5.18;;;;;;;;;;5070495;28;20387;-69
2022/06/30 12:38:32;;;;;;;17.48;6.30;;;;;;;;;;5070473;28;20025;-68
2022/06/30 12:41:07;;;;;;;29.73;6.75;;;;;;;;;;5070816;28;20025;-62
2022/06/30 12:43:41;;;;;;;30.25;8.00;;;;;;;;;;5071174;28;20035;-57
2022/06/30 12:46:09;;;;;;;22.92;6.57;;;;;;;;;;5071057;28;20025;-67
2022/06/30 12:48:41;;;;;;;33.85;8.05;;;;;;;;;;5070570;28;20032;-74
2022/06/30 12:51:08;;;;;;;40.63;8.50;;;;;;;;;;5070320;28;20117;-76
2022/06/30 12:53:34;;;;;;;20.40;6.38;;;;;;;;;;5070374;28;20559;-57
2022/06/30 12:56:22;;;;;;;20.52;5.75;;;;;;;;;;5070669;28;20031;-67
2022/06/30 12:59:16;;;;;;;22.40;6.30;;;;;;;;;;5070719;28;20082;-58
2022/06/30 13:01:44;;;;;;;19.20;5.97;;;;;;;;;;5068146;28;20029;-57
2022/06/30 13:04:16;;;;;;;29.00;6.93;;;;;;;;;;5072929;28;20035;-67
2022/06/30 13:06:43;;;;;;;43.20;8.70;;;;;;;;;;5073790;28;20032;-56
2022/06/30 13:09:14;;;;;;;24.77;6.50;;;;;;;;;;5074472;28;20024;-57
2022/06/30 13:11:46;;;;;;;19.40;6.60;;;;;;;;;;5074516;28;20035;-59
2022/06/30 13:14:14;;;;;;;22.00;6.18;;;;;;;;;;5056374;28;20024;-57
2022/06/30 13:16:40;;;;;;;19.55;6.90;;;;;;;;;;5074394;28;20103;-75
2022/06/30 13:19:07;;;;;;;17.65;6.38;;;;;;;;;;5074412;28;20086;-75
2022/06/30 13:21:33;;;;;;;16.50;5.80;;;;;;;;;;5072355;28;20020;-74
2022/06/30 13:23:59;;;;;;;18.02;6.30;;;;;;;;;;5072999;28;20020;-58
2022/06/30 13:26:26;;;;;;;14.52;5.53;;;;;;;;;;5072526;28;20490;-57
2022/06/30 13:28:53;;;;;;;11.45;5.45;;;;;;;;;;5054845;28;20164;-56
2022/06/30 13:31:20;;;;;;;18.52;5.93;;;;;;;;;;5055146;28;20071;-59
2022/06/30 13:33:46;;;;;;;14.63;5.70;;;;;;;;;;5073230;28;20025;-73
2022/06/30 13:36:12;;;;;;;14.73;5.70;;;;;;;;;;5073011;28;20472;-78
2022/06/30 13:38:39;;;;;;;16.00;5.72;;;;;;;;;;5073083;28;20067;-78
2022/06/30 13:41:05;;;;;;;20.33;6.25;;;;;;;;;;5073325;28;20025;-57
2022/06/30 13:43:31;;;;;;;16.73;5.60;;;;;;;;;;5073349;28;20032;-78
2022/06/30 13:45:57;;;;;;;18.85;5.70;;;;;;;;;;5073286;28;20031;-77
2022/06/30 13:48:25;;;;;;;16.00;5.65;;;;;;;;;;5073432;28;20088;-77
2022/06/30 13:50:52;;;;;;;13.65;5.53;;;;;;;;;;5073408;28;20028;-77
2022/06/30 13:53:18;;;;;;;13.50;5.85;;;;;;;;;;5072861;28;20411;-75
2022/06/30 13:55:44;;;;;;;13.18;5.10;;;;;;;;;;5073206;28;20437;-57
2022/06/30 13:58:11;;;;;;;14.70;5.60;;;;;;;;;;5073510;28;20491;-69
2022/06/30 14:00:37;;;;;;;16.05;5.55;;;;;;;;;;5072990;28;20033;-57
2022/06/30 14:03:04;;;;;;;13.35;5.18;;;;;;;;;;5073585;28;20028;-57
2022/06/30 14:05:30;;;;;;;15.82;5.60;;;;;;;;;;5072919;28;20108;-57
2022/06/30 14:07:56;;;;;;;16.58;4.90;;;;;;;;;;5073043;28;20037;-65
2022/06/30 14:10:22;;;;;;;15.80;5.78;;;;;;;;;;5073059;28;20028;-66
2022/06/30 14:12:48;;;;;;;16.27;5.40;;;;;;;;;;5073140;28;20024;-60
2022/06/30 14:15:14;;;;;;;15.98;5.05;;;;;;;;;;5072623;28;20013;-68
2022/06/30 14:17:41;;;;;;;12.40;4.82;;;;;;;;;;5073258;28;20021;-63
2022/06/30 14:20:08;;;;;;;17.35;5.88;;;;;;;;;;5072950;28;20017;-70
2022/06/30 14:22:35;;;;;;;14.15;5.32;;;;;;;;;;5072561;28;20036;-75
2022/06/30 14:25:02;;;;;;;17.67;5.40;;;;;;;;;;5072954;28;20028;-74
2022/06/30 14:27:28;;;;;;;16.27;5.72;;;;;;;;;;5072401;28;20400;-71
2022/06/30 14:29:54;;;;;;;14.20;5.43;;;;;;;;;;5070132;28;20074;-66
2022/06/30 14:32:22;;;;;;;15.25;5.57;;;;;;;;;;5070873;28;20030;-66
2022/06/30 14:34:48;;;;;;;13.90;5.90;;;;;;;;;;5055713;28;20021;-57
2022/06/30 14:37:14;;;;;;;13.57;5.25;;;;;;;;;;5056607;28;20331;-57
2022/06/30 14:39:40;;;;;;;13.48;4.75;;;;;;;;;;5060962;28;20037;-57
2022/06/30 14:44:51;;;;;;;15.15;5.82;;;;;;;;;;5054709;28;20547;-58
2022/06/30 14:47:17;;;;;;;19.92;5.68;;;;;;;;;;5060021;28;20107;-57
2022/06/30 14:49:43;;;;;;;13.05;4.95;;;;;;;;;;5055234;28;20684;-71
2022/06/30 14:52:09;;;;;;;13.13;5.75;;;;;;;;;;5059056;28;20028;-57